sensor_id;sensor_type;location;lat;lon;timestamp;pressure;altitude;pressure_sealevel;temperature;humidity
53908;BME280;40469;47.998;7.794;2023-03-14T00:00:01;97462.78;;;9.60;100.00
53908;BME280;40469;47.998;7.794;2023-03-14T00:02:30;97481.59;;;9.68;100.00
53908;BME280;40469;47.998;7.794;2023-03-14T00:04:55;97484.88;;;9.75;100.00
53908;BME280;40469;47.998;7.794;2023-03-14T00:07:23;97494.31;;;9.79;100.00
53908;BME280;40469;47.998;7.794;2023-03-14T00:09:53;97497.78;;;9.80;100.00
53908;BME280;40469;47.998;7.794;2023-03-14T00:12:18;97506.75;;;9.71;100.00
53908;BME280;40469;47.998;7.794;2023-03-14T00:14:43;97521.25;;;9.80;100.00
53908;BME280;40469;47.998;7.794;2023-03-14T00:17:08;97524.38;;;9.91;100.00
53908;BME280;40469;47.998;7.794;2023-03-14T00:19:34;97529.41;;;9.97;100.00
53908;BME280;40469;47.998;7.794;2023-03-14T00:21:59;97542.59;;;10.49;100.00
53908;BME280;40469;47.998;7.794;2023-03-14T00:24:24;97534.91;;;10.44;100.00
53908;BME280;40469;47.998;7.794;2023-03-14T00:26:50;97541.38;;;10.86;100.00
53908;BME280;40469;47.998;7.794;2023-03-14T00:29:15;97544.69;;;10.91;100.00
53908;BME280;40469;47.998;7.794;2023-03-14T00:31:40;97545.53;;;10.92;100.00
53908;BME280;40469;47.998;7.794;2023-03-14T00:34:05;97560.78;;;11.04;100.00
53908;BME280;40469;47.998;7.794;2023-03-14T00:36:31;97549.78;;;10.96;100.00
53908;BME280;40469;47.998;7.794;2023-03-14T00:38:56;97543.19;;;11.09;100.00
53908;BME280;40469;47.998;7.794;2023-03-14T00:41:22;97548.19;;;10.90;100.00
53908;BME280;40469;47.998;7.794;2023-03-14T00:43:47;97548.81;;;10.98;100.00
53908;BME280;40469;47.998;7.794;2023-03-14T00:46:13;97544.75;;;10.90;100.00
53908;BME280;40469;47.998;7.794;2023-03-14T00:48:38;97546.09;;;11.02;100.00
53908;BME280;40469;47.998;7.794;2023-03-14T00:51:04;97546.28;;;10.95;100.00
53908;BME280;40469;47.998;7.794;2023-03-14T00:53:29;97526.88;;;11.03;100.00
53908;BME280;40469;47.998;7.794;2023-03-14T00:55:55;97514.94;;;10.95;100.00
53908;BME280;40469;47.998;7.794;2023-03-14T00:58:20;97494.25;;;10.91;100.00
53908;BME280;40469;47.998;7.794;2023-03-14T01:00:45;97495.34;;;10.84;100.00
53908;BME280;40469;47.998;7.794;2023-03-14T01:03:12;97490.06;;;10.85;100.00
53908;BME280;40469;47.998;7.794;2023-03-14T01:05:37;97492.53;;;10.90;100.00
53908;BME280;40469;47.998;7.794;2023-03-14T01:08:03;97498.13;;;10.79;100.00
53908;BME280;40469;47.998;7.794;2023-03-14T01:10:28;97495.28;;;10.85;100.00
53908;BME280;40469;47.998;7.794;2023-03-14T01:12:53;97502.31;;;10.83;100.00
53908;BME280;40469;47.998;7.794;2023-03-14T01:15:19;97515.41;;;10.81;100.00
53908;BME280;40469;47.998;7.794;2023-03-14T01:17:44;97511.81;;;10.86;100.00
53908;BME280;40469;47.998;7.794;2023-03-14T01:20:10;97535.41;;;10.82;100.00
53908;BME280;40469;47.998;7.794;2023-03-14T01:22:37;97514.63;;;10.79;100.00
53908;BME280;40469;47.998;7.794;2023-03-14T01:25:04;97519.66;;;10.86;100.00
53908;BME280;40469;47.998;7.794;2023-03-14T01:27:30;97538.28;;;10.75;100.00
53908;BME280;40469;47.998;7.794;2023-03-14T01:29:55;97531.75;;;10.61;100.00
53908;BME280;40469;47.998;7.794;2023-03-14T01:32:20;97536.59;;;10.47;100.00
53908;BME280;40469;47.998;7.794;2023-03-14T01:34:46;97514.03;;;10.44;100.00
53908;BME280;40469;47.998;7.794;2023-03-14T01:37:11;97530.75;;;10.39;100.00
53908;BME280;40469;47.998;7.794;2023-03-14T01:39:37;97537.06;;;10.32;100.00
53908;BME280;40469;47.998;7.794;2023-03-14T01:42:02;97521.19;;;10.39;100.00
53908;BME280;40469;47.998;7.794;2023-03-14T01:44:27;97505.63;;;10.36;100.00
53908;BME280;40469;47.998;7.794;2023-03-14T01:46:53;97505.72;;;10.33;100.00
53908;BME280;40469;47.998;7.794;2023-03-14T01:49:31;97497.94;;;10.30;100.00
53908;BME280;40469;47.998;7.794;2023-03-14T01:52:10;97499.06;;;10.23;100.00
53908;BME280;40469;47.998;7.794;2023-03-14T01:54:39;97499.53;;;10.07;100.00
53908;BME280;40469;47.998;7.794;2023-03-14T01:59:33;97482.88;;;10.13;100.00
53908;BME280;40469;47.998;7.794;2023-03-14T02:01:59;97480.25;;;10.13;100.00
53908;BME280;40469;47.998;7.794;2023-03-14T02:04:25;97504.53;;;10.15;100.00
53908;BME280;40469;47.998;7.794;2023-03-14T02:06:54;97488.88;;;10.15;100.00
53908;BME280;40469;47.998;7.794;2023-03-14T02:09:21;97489.72;;;10.16;100.00
53908;BME280;40469;47.998;7.794;2023-03-14T02:11:47;97479.59;;;10.06;100.00
53908;BME280;40469;47.998;7.794;2023-03-14T02:14:14;97498.69;;;10.07;100.00
53908;BME280;40469;47.998;7.794;2023-03-14T02:16:43;97462.22;;;10.05;100.00
53908;BME280;40469;47.998;7.794;2023-03-14T02:19:08;97469.47;;;10.24;100.00
53908;BME280;40469;47.998;7.794;2023-03-14T02:21:42;97470.25;;;10.26;100.00
53908;BME280;40469;47.998;7.794;2023-03-14T02:24:13;97477.13;;;10.29;100.00
53908;BME280;40469;47.998;7.794;2023-03-14T02:29:26;97447.31;;;10.37;100.00
53908;BME280;40469;47.998;7.794;2023-03-14T02:31:52;97434.06;;;10.43;100.00
53908;BME280;40469;47.998;7.794;2023-03-14T02:34:17;97428.81;;;10.45;100.00
53908;BME280;40469;47.998;7.794;2023-03-14T02:36:42;97434.97;;;10.42;100.00
53908;BME280;40469;47.998;7.794;2023-03-14T02:39:10;97421.78;;;10.47;100.00
53908;BME280;40469;47.998;7.794;2023-03-14T02:41:39;97420.06;;;10.46;100.00
53908;BME280;40469;47.998;7.794;2023-03-14T02:44:04;97397.50;;;10.45;100.00
53908;BME280;40469;47.998;7.794;2023-03-14T02:46:29;97394.13;;;10.41;100.00
53908;BME280;40469;47.998;7.794;2023-03-14T02:51:20;97381.34;;;10.34;100.00
53908;BME280;40469;47.998;7.794;2023-03-14T02:53:46;97392.31;;;10.43;100.00
53908;BME280;40469;47.998;7.794;2023-03-14T02:56:11;97383.66;;;10.43;100.00
53908;BME280;40469;47.998;7.794;2023-03-14T02:58:36;97380.06;;;10.46;100.00
53908;BME280;40469;47.998;7.794;2023-03-14T03:01:02;97380.97;;;10.44;100.00
53908;BME280;40469;47.998;7.794;2023-03-14T03:03:27;97375.53;;;10.51;100.00
53908;BME280;40469;47.998;7.794;2023-03-14T03:05:53;97371.34;;;10.47;100.00
53908;BME280;40469;47.998;7.794;2023-03-14T03:08:19;97366.13;;;10.47;100.00
53908;BME280;40469;47.998;7.794;2023-03-14T03:10:45;97354.03;;;10.44;100.00
53908;BME280;40469;47.998;7.794;2023-03-14T03:13:10;97357.56;;;10.43;100.00
53908;BME280;40469;47.998;7.794;2023-03-14T03:15:36;97368.09;;;10.40;100.00
53908;BME280;40469;47.998;7.794;2023-03-14T03:18:01;97362.88;;;10.40;100.00
53908;BME280;40469;47.998;7.794;2023-03-14T03:20:26;97353.28;;;10.40;100.00
53908;BME280;40469;47.998;7.794;2023-03-14T03:22:51;97361.91;;;10.42;100.00
53908;BME280;40469;47.998;7.794;2023-03-14T03:25:17;97344.66;;;10.38;100.00
53908;BME280;40469;47.998;7.794;2023-03-14T03:27:42;97351.66;;;10.38;100.00
53908;BME280;40469;47.998;7.794;2023-03-14T03:30:07;97353.38;;;10.37;100.00
53908;BME280;40469;47.998;7.794;2023-03-14T03:32:33;97342.25;;;10.32;100.00
53908;BME280;40469;47.998;7.794;2023-03-14T03:34:58;97356.88;;;10.38;100.00
53908;BME280;40469;47.998;7.794;2023-03-14T03:37:24;97327.47;;;10.33;100.00
53908;BME280;40469;47.998;7.794;2023-03-14T03:39:50;97329.31;;;10.29;100.00
53908;BME280;40469;47.998;7.794;2023-03-14T03:42:15;97328.22;;;10.36;100.00
53908;BME280;40469;47.998;7.794;2023-03-14T03:44:40;97326.72;;;10.29;100.00
53908;BME280;40469;47.998;7.794;2023-03-14T03:47:05;97306.81;;;10.25;100.00
53908;BME280;40469;47.998;7.794;2023-03-14T03:49:31;97307.56;;;10.29;100.00
53908;BME280;40469;47.998;7.794;2023-03-14T03:51:56;97313.72;;;10.28;100.00
53908;BME280;40469;47.998;7.794;2023-03-14T03:54:22;97295.88;;;10.15;100.00
53908;BME280;40469;47.998;7.794;2023-03-14T03:56:47;97301.84;;;10.19;100.00
53908;BME280;40469;47.998;7.794;2023-03-14T03:59:12;97295.09;;;10.13;100.00
53908;BME280;40469;47.998;7.794;2023-03-14T04:01:37;97303.81;;;10.12;100.00
53908;BME280;40469;47.998;7.794;2023-03-14T04:04:03;97302.88;;;10.15;100.00
53908;BME280;40469;47.998;7.794;2023-03-14T04:06:28;97302.16;;;10.10;100.00
53908;BME280;40469;47.998;7.794;2023-03-14T04:08:53;97294.91;;;10.18;100.00
53908;BME280;40469;47.998;7.794;2023-03-14T04:11:19;97279.91;;;10.24;100.00
53908;BME280;40469;47.998;7.794;2023-03-14T04:13:44;97272.81;;;10.28;100.00
53908;BME280;40469;47.998;7.794;2023-03-14T04:16:20;97267.56;;;10.30;100.00
53908;BME280;40469;47.998;7.794;2023-03-14T04:18:45;97262.94;;;10.38;100.00
53908;BME280;40469;47.998;7.794;2023-03-14T04:21:10;97262.91;;;10.39;100.00
53908;BME280;40469;47.998;7.794;2023-03-14T04:23:36;97262.13;;;10.36;100.00
53908;BME280;40469;47.998;7.794;2023-03-14T04:26:01;97254.16;;;10.40;100.00
53908;BME280;40469;47.998;7.794;2023-03-14T04:28:27;97250.75;;;10.38;100.00
53908;BME280;40469;47.998;7.794;2023-03-14T04:30:59;97246.38;;;10.39;100.00
53908;BME280;40469;47.998;7.794;2023-03-14T04:33:31;97237.06;;;10.32;100.00
53908;BME280;40469;47.998;7.794;2023-03-14T04:35:56;97246.44;;;10.37;100.00
53908;BME280;40469;47.998;7.794;2023-03-14T04:38:21;97234.41;;;10.33;100.00
53908;BME280;40469;47.998;7.794;2023-03-14T04:40:46;97246.44;;;10.37;100.00
53908;BME280;40469;47.998;7.794;2023-03-14T04:43:12;97233.53;;;10.34;100.00
53908;BME280;40469;47.998;7.794;2023-03-14T04:45:37;97222.47;;;10.26;100.00
53908;BME280;40469;47.998;7.794;2023-03-14T04:48:06;97220.81;;;10.23;100.00
53908;BME280;40469;47.998;7.794;2023-03-14T04:50:31;97212.19;;;10.21;100.00
53908;BME280;40469;47.998;7.794;2023-03-14T04:52:56;97202.63;;;10.22;100.00
53908;BME280;40469;47.998;7.794;2023-03-14T04:55:21;97209.78;;;10.17;100.00
53908;BME280;40469;47.998;7.794;2023-03-14T04:57:46;97204.28;;;10.24;100.00
53908;BME280;40469;47.998;7.794;2023-03-14T05:00:12;97186.84;;;10.25;100.00
53908;BME280;40469;47.998;7.794;2023-03-14T05:02:37;97199.28;;;10.18;100.00
53908;BME280;40469;47.998;7.794;2023-03-14T05:05:02;97181.69;;;10.23;100.00
53908;BME280;40469;47.998;7.794;2023-03-14T05:07:28;97178.97;;;10.27;100.00
53908;BME280;40469;47.998;7.794;2023-03-14T05:09:53;97174.91;;;10.19;100.00
53908;BME280;40469;47.998;7.794;2023-03-14T05:12:19;97178.47;;;10.17;100.00
53908;BME280;40469;47.998;7.794;2023-03-14T05:14:44;97172.47;;;10.15;100.00
53908;BME280;40469;47.998;7.794;2023-03-14T05:17:09;97178.53;;;10.15;100.00
53908;BME280;40469;47.998;7.794;2023-03-14T05:19:35;97169.78;;;10.16;100.00
53908;BME280;40469;47.998;7.794;2023-03-14T05:22:00;97162.88;;;10.15;100.00
53908;BME280;40469;47.998;7.794;2023-03-14T05:24:26;97168.25;;;10.11;100.00
53908;BME280;40469;47.998;7.794;2023-03-14T05:26:51;97159.00;;;10.02;100.00
53908;BME280;40469;47.998;7.794;2023-03-14T05:29:16;97163.22;;;10.06;100.00
53908;BME280;40469;47.998;7.794;2023-03-14T05:31:41;97166.69;;;10.06;100.00
53908;BME280;40469;47.998;7.794;2023-03-14T05:34:06;97173.53;;;10.09;100.00
53908;BME280;40469;47.998;7.794;2023-03-14T05:36:32;97158.47;;;10.17;100.00
53908;BME280;40469;47.998;7.794;2023-03-14T05:38:57;97160.34;;;10.14;100.00
53908;BME280;40469;47.998;7.794;2023-03-14T05:41:22;97157.72;;;10.14;100.00
53908;BME280;40469;47.998;7.794;2023-03-14T05:43:47;97177.84;;;10.10;100.00
53908;BME280;40469;47.998;7.794;2023-03-14T05:46:13;97164.50;;;10.18;100.00
53908;BME280;40469;47.998;7.794;2023-03-14T05:48:38;97167.75;;;10.24;100.00
53908;BME280;40469;47.998;7.794;2023-03-14T05:51:03;97166.97;;;10.22;100.00
53908;BME280;40469;47.998;7.794;2023-03-14T05:53:29;97163.38;;;10.25;100.00
53908;BME280;40469;47.998;7.794;2023-03-14T05:55:55;97159.81;;;10.28;100.00
53908;BME280;40469;47.998;7.794;2023-03-14T05:58:20;97171.19;;;10.25;100.00
53908;BME280;40469;47.998;7.794;2023-03-14T06:00:46;97153.63;;;10.30;100.00
53908;BME280;40469;47.998;7.794;2023-03-14T06:03:11;97145.94;;;10.27;100.00
53908;BME280;40469;47.998;7.794;2023-03-14T06:05:36;97149.97;;;10.36;100.00
53908;BME280;40469;47.998;7.794;2023-03-14T06:08:02;97141.34;;;10.34;100.00
53908;BME280;40469;47.998;7.794;2023-03-14T06:10:27;97135.97;;;10.38;100.00
53908;BME280;40469;47.998;7.794;2023-03-14T06:12:52;97139.66;;;10.33;100.00
53908;BME280;40469;47.998;7.794;2023-03-14T06:15:17;97156.78;;;10.40;100.00
53908;BME280;40469;47.998;7.794;2023-03-14T06:17:42;97145.25;;;10.46;100.00
53908;BME280;40469;47.998;7.794;2023-03-14T06:20:08;97141.25;;;10.37;100.00
53908;BME280;40469;47.998;7.794;2023-03-14T06:22:33;97161.06;;;10.41;100.00
53908;BME280;40469;47.998;7.794;2023-03-14T06:24:59;97158.53;;;10.39;100.00
53908;BME280;40469;47.998;7.794;2023-03-14T06:27:24;97149.44;;;10.50;100.00
53908;BME280;40469;47.998;7.794;2023-03-14T06:29:49;97151.09;;;10.52;100.00
53908;BME280;40469;47.998;7.794;2023-03-14T06:32:14;97152.25;;;10.45;100.00
53908;BME280;40469;47.998;7.794;2023-03-14T06:34:40;97148.94;;;10.40;100.00
53908;BME280;40469;47.998;7.794;2023-03-14T06:37:05;97146.88;;;10.48;100.00
53908;BME280;40469;47.998;7.794;2023-03-14T06:39:31;97138.16;;;10.49;100.00
53908;BME280;40469;47.998;7.794;2023-03-14T06:41:56;97132.03;;;10.50;100.00
53908;BME280;40469;47.998;7.794;2023-03-14T06:44:21;97127.66;;;10.51;100.00
53908;BME280;40469;47.998;7.794;2023-03-14T06:46:47;97135.84;;;10.63;100.00
53908;BME280;40469;47.998;7.794;2023-03-14T06:49:12;97134.03;;;10.66;100.00
53908;BME280;40469;47.998;7.794;2023-03-14T06:51:37;97141.56;;;10.73;100.00
53908;BME280;40469;47.998;7.794;2023-03-14T06:54:02;97149.50;;;10.70;100.00
53908;BME280;40469;47.998;7.794;2023-03-14T06:56:28;97149.19;;;10.78;100.00
53908;BME280;40469;47.998;7.794;2023-03-14T06:58:53;97147.25;;;10.83;100.00
53908;BME280;40469;47.998;7.794;2023-03-14T07:01:23;97149.91;;;10.81;100.00
53908;BME280;40469;47.998;7.794;2023-03-14T07:03:49;97157.63;;;10.85;100.00
53908;BME280;40469;47.998;7.794;2023-03-14T07:06:14;97158.25;;;10.91;100.00
53908;BME280;40469;47.998;7.794;2023-03-14T07:08:39;97160.75;;;10.94;100.00
53908;BME280;40469;47.998;7.794;2023-03-14T07:11:05;97172.59;;;11.03;100.00
53908;BME280;40469;47.998;7.794;2023-03-14T07:13:30;97177.81;;;11.03;100.00
53908;BME280;40469;47.998;7.794;2023-03-14T07:15:55;97175.59;;;11.14;100.00
53908;BME280;40469;47.998;7.794;2023-03-14T07:18:20;97185.25;;;11.12;100.00
53908;BME280;40469;47.998;7.794;2023-03-14T07:20:46;97179.00;;;11.16;100.00
53908;BME280;40469;47.998;7.794;2023-03-14T07:23:11;97178.31;;;11.11;100.00
53908;BME280;40469;47.998;7.794;2023-03-14T07:25:36;97180.50;;;11.22;100.00
53908;BME280;40469;47.998;7.794;2023-03-14T07:28:01;97172.41;;;11.28;100.00
53908;BME280;40469;47.998;7.794;2023-03-14T07:30:27;97185.28;;;11.33;100.00
53908;BME280;40469;47.998;7.794;2023-03-14T07:32:52;97188.38;;;11.43;100.00
53908;BME280;40469;47.998;7.794;2023-03-14T07:35:17;97197.09;;;11.42;100.00
53908;BME280;40469;47.998;7.794;2023-03-14T07:37:42;97187.47;;;11.44;100.00
53908;BME280;40469;47.998;7.794;2023-03-14T07:40:08;97205.09;;;11.38;100.00
53908;BME280;40469;47.998;7.794;2023-03-14T07:42:35;97227.03;;;11.34;100.00
53908;BME280;40469;47.998;7.794;2023-03-14T07:45:00;97246.69;;;11.23;100.00
53908;BME280;40469;47.998;7.794;2023-03-14T07:47:25;97209.94;;;11.26;100.00
53908;BME280;40469;47.998;7.794;2023-03-14T07:49:51;97218.91;;;11.20;100.00
53908;BME280;40469;47.998;7.794;2023-03-14T07:52:16;97220.84;;;11.15;100.00
53908;BME280;40469;47.998;7.794;2023-03-14T07:54:41;97228.72;;;11.13;100.00
53908;BME280;40469;47.998;7.794;2023-03-14T07:57:06;97226.13;;;11.13;100.00
53908;BME280;40469;47.998;7.794;2023-03-14T07:59:32;97226.38;;;11.07;100.00
53908;BME280;40469;47.998;7.794;2023-03-14T08:01:57;97236.53;;;10.93;100.00
53908;BME280;40469;47.998;7.794;2023-03-14T08:04:22;97239.19;;;10.91;100.00
53908;BME280;40469;47.998;7.794;2023-03-14T08:06:47;97235.78;;;10.89;100.00
53908;BME280;40469;47.998;7.794;2023-03-14T08:09:13;97235.13;;;10.84;100.00
53908;BME280;40469;47.998;7.794;2023-03-14T08:11:38;97235.00;;;10.87;100.00
53908;BME280;40469;47.998;7.794;2023-03-14T08:14:03;97232.69;;;10.79;100.00
53908;BME280;40469;47.998;7.794;2023-03-14T08:16:28;97252.63;;;10.82;100.00
53908;BME280;40469;47.998;7.794;2023-03-14T08:18:53;97241.53;;;10.75;100.00
53908;BME280;40469;47.998;7.794;2023-03-14T08:21:19;97245.41;;;10.65;100.00
53908;BME280;40469;47.998;7.794;2023-03-14T08:23:44;97259.34;;;10.64;100.00
53908;BME280;40469;47.998;7.794;2023-03-14T08:26:09;97236.84;;;10.61;100.00
53908;BME280;40469;47.998;7.794;2023-03-14T08:28:34;97256.09;;;10.59;100.00
53908;BME280;40469;47.998;7.794;2023-03-14T08:31:00;97254.91;;;10.68;100.00
53908;BME280;40469;47.998;7.794;2023-03-14T08:33:26;97264.81;;;10.58;100.00
53908;BME280;40469;47.998;7.794;2023-03-14T08:35:55;97261.22;;;10.60;100.00
53908;BME280;40469;47.998;7.794;2023-03-14T08:38:21;97255.78;;;10.67;100.00
53908;BME280;40469;47.998;7.794;2023-03-14T08:40:46;97260.28;;;10.63;100.00
53908;BME280;40469;47.998;7.794;2023-03-14T08:43:11;97254.13;;;10.64;100.00
53908;BME280;40469;47.998;7.794;2023-03-14T08:45:37;97253.28;;;10.63;100.00
53908;BME280;40469;47.998;7.794;2023-03-14T08:48:02;97254.13;;;10.64;100.00
53908;BME280;40469;47.998;7.794;2023-03-14T08:50:28;97268.00;;;10.66;100.00
53908;BME280;40469;47.998;7.794;2023-03-14T08:52:53;97270.22;;;10.77;100.00
53908;BME280;40469;47.998;7.794;2023-03-14T08:55:18;97266.13;;;10.70;100.00
53908;BME280;40469;47.998;7.794;2023-03-14T08:57:43;97273.66;;;10.77;100.00
53908;BME280;40469;47.998;7.794;2023-03-14T09:00:09;97279.56;;;10.82;100.00
53908;BME280;40469;47.998;7.794;2023-03-14T09:02:37;97280.84;;;10.94;100.00
53908;BME280;40469;47.998;7.794;2023-03-14T09:05:02;97284.41;;;10.92;100.00
53908;BME280;40469;47.998;7.794;2023-03-14T09:07:28;97291.31;;;10.94;100.00
53908;BME280;40469;47.998;7.794;2023-03-14T09:09:53;97287.59;;;11.00;100.00
53908;BME280;40469;47.998;7.794;2023-03-14T09:12:18;97293.50;;;11.05;100.00
53908;BME280;40469;47.998;7.794;2023-03-14T09:14:44;97294.28;;;11.07;100.00
53908;BME280;40469;47.998;7.794;2023-03-14T09:17:09;97283.41;;;11.18;100.00
53908;BME280;40469;47.998;7.794;2023-03-14T09:19:34;97280.25;;;11.10;100.00
53908;BME280;40469;47.998;7.794;2023-03-14T09:22:02;97285.88;;;10.99;100.00
53908;BME280;40469;47.998;7.794;2023-03-14T09:24:27;97277.63;;;11.10;100.00
53908;BME280;40469;47.998;7.794;2023-03-14T09:26:53;97292.63;;;11.05;100.00
53908;BME280;40469;47.998;7.794;2023-03-14T09:29:19;97295.13;;;11.08;100.00
53908;BME280;40469;47.998;7.794;2023-03-14T09:31:45;97276.78;;;11.09;100.00
53908;BME280;40469;47.998;7.794;2023-03-14T09:34:10;97290.00;;;11.05;100.00
53908;BME280;40469;47.998;7.794;2023-03-14T09:36:36;97290.22;;;11.00;100.00
53908;BME280;40469;47.998;7.794;2023-03-14T09:39:03;97294.44;;;11.03;100.00
53908;BME280;40469;47.998;7.794;2023-03-14T09:44:02;97322.22;;;10.81;100.00
53908;BME280;40469;47.998;7.794;2023-03-14T09:46:28;97318.66;;;10.84;100.00
53908;BME280;40469;47.998;7.794;2023-03-14T09:48:54;97327.44;;;10.81;100.00
53908;BME280;40469;47.998;7.794;2023-03-14T09:51:19;97313.59;;;10.79;100.00
53908;BME280;40469;47.998;7.794;2023-03-14T09:53:47;97321.53;;;10.76;100.00
53908;BME280;40469;47.998;7.794;2023-03-14T09:56:23;97326.03;;;10.73;100.00
53908;BME280;40469;47.998;7.794;2023-03-14T09:58:51;97328.72;;;10.71;100.00
53908;BME280;40469;47.998;7.794;2023-03-14T10:01:20;97331.94;;;10.54;100.00
53908;BME280;40469;47.998;7.794;2023-03-14T10:03:47;97327.78;;;10.49;100.00
53908;BME280;40469;47.998;7.794;2023-03-14T10:06:12;97328.47;;;10.54;100.00
53908;BME280;40469;47.998;7.794;2023-03-14T10:08:42;97326.59;;;10.57;100.00
53908;BME280;40469;47.998;7.794;2023-03-14T10:11:15;97331.13;;;10.52;100.00
53908;BME280;40469;47.998;7.794;2023-03-14T10:16:15;97334.13;;;10.41;100.00
53908;BME280;40469;47.998;7.794;2023-03-14T10:18:44;97335.88;;;10.41;100.00
53908;BME280;40469;47.998;7.794;2023-03-14T10:21:17;97345.75;;;10.33;100.00
53908;BME280;40469;47.998;7.794;2023-03-14T10:23:43;97338.88;;;10.29;100.00
53908;BME280;40469;47.998;7.794;2023-03-14T10:26:12;97353.00;;;10.23;100.00
53908;BME280;40469;47.998;7.794;2023-03-14T10:28:39;97354.53;;;10.29;100.00
53908;BME280;40469;47.998;7.794;2023-03-14T10:31:07;97349.25;;;10.30;100.00
53908;BME280;40469;47.998;7.794;2023-03-14T10:33:34;97349.69;;;10.18;100.00
53908;BME280;40469;47.998;7.794;2023-03-14T10:38:33;97355.91;;;10.14;100.00
53908;BME280;40469;47.998;7.794;2023-03-14T10:40:59;97358.56;;;10.12;100.00
53908;BME280;40469;47.998;7.794;2023-03-14T10:43:25;97359.31;;;10.16;100.00
53908;BME280;40469;47.998;7.794;2023-03-14T10:45:53;97395.94;;;10.13;100.00
53908;BME280;40469;47.998;7.794;2023-03-14T10:50:57;97385.00;;;10.01;100.00
53908;BME280;40469;47.998;7.794;2023-03-14T10:53:23;97399.63;;;10.05;100.00
53908;BME280;40469;47.998;7.794;2023-03-14T10:55:49;97400.38;;;10.09;100.00
53908;BME280;40469;47.998;7.794;2023-03-14T10:58:29;97390.19;;;10.03;100.00
53908;BME280;40469;47.998;7.794;2023-03-14T11:03:39;97416.59;;;9.92;100.00
53908;BME280;40469;47.998;7.794;2023-03-14T11:06:14;97428.75;;;9.92;100.00
53908;BME280;40469;47.998;7.794;2023-03-14T11:08:45;97418.19;;;9.96;100.00
53908;BME280;40469;47.998;7.794;2023-03-14T11:13:46;97444.84;;;10.06;100.00
53908;BME280;40469;47.998;7.794;2023-03-14T11:19:03;97473.41;;;10.09;100.00
53908;BME280;40469;47.998;7.794;2023-03-14T11:21:35;97469.25;;;10.03;100.00
53908;BME280;40469;47.998;7.794;2023-03-14T11:26:53;97485.69;;;9.77;100.00
53908;BME280;40469;47.998;7.794;2023-03-14T11:32:02;97605.28;;;9.25;100.00
53908;BME280;40469;47.998;7.794;2023-03-14T11:34:36;97612.06;;;7.81;100.00
53908;BME280;40469;47.998;7.794;2023-03-14T11:37:11;97638.59;;;7.07;100.00
53908;BME280;40469;47.998;7.794;2023-03-14T11:39:40;97646.00;;;6.75;100.00
53908;BME280;40469;47.998;7.794;2023-03-14T11:42:11;97649.41;;;6.79;100.00
53908;BME280;40469;47.998;7.794;2023-03-14T11:44:37;97668.41;;;6.81;100.00
53908;BME280;40469;47.998;7.794;2023-03-14T11:47:05;97667.50;;;6.85;100.00
53908;BME280;40469;47.998;7.794;2023-03-14T11:49:34;97682.91;;;6.93;100.00
53908;BME280;40469;47.998;7.794;2023-03-14T11:52:03;97689.69;;;7.01;100.00
53908;BME280;40469;47.998;7.794;2023-03-14T11:54:41;97697.31;;;7.12;100.00
53908;BME280;40469;47.998;7.794;2023-03-14T11:57:15;97711.81;;;7.26;100.00
53908;BME280;40469;47.998;7.794;2023-03-14T11:59:46;97724.50;;;7.43;100.00
53908;BME280;40469;47.998;7.794;2023-03-14T12:02:16;97740.69;;;7.57;100.00
53908;BME280;40469;47.998;7.794;2023-03-14T12:04:43;97740.59;;;7.63;100.00
53908;BME280;40469;47.998;7.794;2023-03-14T12:07:20;97756.00;;;7.74;100.00
53908;BME280;40469;47.998;7.794;2023-03-14T12:09:47;97767.13;;;7.81;100.00
53908;BME280;40469;47.998;7.794;2023-03-14T12:12:14;97771.28;;;7.91;100.00
53908;BME280;40469;47.998;7.794;2023-03-14T12:14:46;97780.72;;;7.96;100.00
53908;BME280;40469;47.998;7.794;2023-03-14T12:17:24;97800.28;;;8.16;100.00
53908;BME280;40469;47.998;7.794;2023-03-14T12:22:35;97829.94;;;8.52;100.00
53908;BME280;40469;47.998;7.794;2023-03-14T12:35:39;97856.59;;;9.06;100.00
53908;BME280;40469;47.998;7.794;2023-03-14T12:38:05;97866.72;;;9.20;100.00
53908;BME280;40469;47.998;7.794;2023-03-14T12:40:37;97853.84;;;9.51;100.00
53908;BME280;40469;47.998;7.794;2023-03-14T12:43:04;97867.31;;;9.68;100.00
53908;BME280;40469;47.998;7.794;2023-03-14T12:46:07;97864.03;;;9.98;100.00
53908;BME280;40469;47.998;7.794;2023-03-14T12:48:33;97863.78;;;10.07;100.00
53908;BME280;40469;47.998;7.794;2023-03-14T12:51:05;97863.63;;;9.77;100.00
53908;BME280;40469;47.998;7.794;2023-03-14T13:01:36;97912.69;;;9.21;100.00
53908;BME280;40469;47.998;7.794;2023-03-14T13:04:08;97921.75;;;9.03;100.00
53908;BME280;40469;47.998;7.794;2023-03-14T13:11:49;97940.25;;;8.41;100.00
53908;BME280;40469;47.998;7.794;2023-03-14T13:14:15;97942.66;;;8.53;100.00
53908;BME280;40469;47.998;7.794;2023-03-14T13:16:40;97956.25;;;8.69;100.00
53908;BME280;40469;47.998;7.794;2023-03-14T13:19:11;97949.91;;;8.82;100.00
53908;BME280;40469;47.998;7.794;2023-03-14T13:21:39;97959.50;;;8.80;100.00
53908;BME280;40469;47.998;7.794;2023-03-14T13:24:05;97976.88;;;8.78;100.00
53908;BME280;40469;47.998;7.794;2023-03-14T13:28:59;97975.22;;;8.76;100.00
53908;BME280;40469;47.998;7.794;2023-03-14T13:31:25;97979.63;;;8.72;100.00
53908;BME280;40469;47.998;7.794;2023-03-14T13:34:00;97976.09;;;8.75;100.00
53908;BME280;40469;47.998;7.794;2023-03-14T13:36:26;97989.09;;;8.75;100.00
53908;BME280;40469;47.998;7.794;2023-03-14T13:38:56;97993.34;;;8.80;100.00
53908;BME280;40469;47.998;7.794;2023-03-14T13:41:22;97995.97;;;8.79;100.00
53908;BME280;40469;47.998;7.794;2023-03-14T13:43:48;97999.28;;;8.87;100.00
53908;BME280;40469;47.998;7.794;2023-03-14T13:46:19;98006.28;;;8.85;100.00
53908;BME280;40469;47.998;7.794;2023-03-14T13:48:50;98007.16;;;8.82;100.00